createdAt,value
2023-01-15T00:01:35.529Z,98853.06
2023-01-15T00:06:39.684Z,98845.00
2023-01-15T00:11:41.403Z,98848.53
2023-01-15T00:16:43.180Z,98859.97
2023-01-15T00:21:46.542Z,98866.97
2023-01-15T00:27:06.695Z,98876.56
2023-01-15T00:32:08.560Z,98893.16
2023-01-15T00:37:12.436Z,98914.47
2023-01-15T00:42:14.196Z,98915.31
2023-01-15T00:47:15.912Z,98922.94
2023-01-15T00:52:18.987Z,98948.72
2023-01-15T00:57:20.687Z,98953.44
2023-01-15T01:02:22.441Z,98974.53
2023-01-15T01:07:25.452Z,98983.34
2023-01-15T01:12:27.199Z,98995.84
2023-01-15T01:17:30.021Z,99020.22
2023-01-15T01:22:33.677Z,99022.03
2023-01-15T01:27:36.908Z,99037.81
2023-01-15T01:32:40.707Z,99056.88
2023-01-15T01:37:44.193Z,99058.03
2023-01-15T01:42:46.614Z,99045.31
2023-01-15T01:47:48.297Z,99048.13
2023-01-15T01:52:52.705Z,99063.88
2023-01-15T01:57:55.691Z,99077.84
2023-01-15T02:02:57.425Z,99083.97
2023-01-15T02:08:00.504Z,99076.31
2023-01-15T02:13:04.809Z,99077.19
2023-01-15T02:18:11.728Z,99080.72
2023-01-15T02:23:42.255Z,99077.28
2023-01-15T02:28:46.222Z,99087.69
2023-01-15T02:33:49.670Z,99101.63
2023-01-15T02:38:52.721Z,99090.41
2023-01-15T02:43:56.435Z,99106.06
2023-01-15T02:49:00.397Z,99101.75
2023-01-15T02:54:07.040Z,99109.59
2023-01-15T02:59:13.030Z,99103.53
2023-01-15T03:04:19.409Z,99107.00
2023-01-15T03:09:21.128Z,99092.31
2023-01-15T03:14:27.786Z,99096.66
2023-01-15T03:19:31.573Z,99065.56
2023-01-15T03:24:37.780Z,99055.16
2023-01-15T03:29:42.791Z,99051.66
2023-01-15T03:34:46.608Z,99053.38
2023-01-15T03:39:52.394Z,99045.66
2023-01-15T03:45:04.342Z,99054.25
2023-01-15T03:50:10.285Z,99054.25
2023-01-15T03:55:17.535Z,99062.06
2023-01-15T04:00:31.570Z,99068.13
2023-01-15T04:05:35.058Z,99074.13
2023-01-15T04:10:38.982Z,99046.47
2023-01-15T04:15:46.283Z,99046.41
2023-01-15T04:20:48.557Z,99031.72
2023-01-15T04:25:50.457Z,99029.97
2023-01-15T04:30:53.574Z,99017.03
2023-01-15T04:35:55.330Z,99020.47
2023-01-15T04:41:19.683Z,99014.38
2023-01-15T04:46:23.142Z,99026.50
2023-01-15T04:51:24.907Z,99029.97
2023-01-15T04:56:26.602Z,99030.88
2023-01-15T05:01:29.776Z,99006.63
2023-01-15T05:06:31.545Z,99004.03
2023-01-15T05:11:34.727Z,99004.91
2023-01-15T05:16:38.493Z,99016.97
2023-01-15T05:21:41.118Z,99026.56
2023-01-15T05:26:42.925Z,99009.25
2023-01-15T05:31:46.329Z,99017.88
2023-01-15T05:36:48.005Z,99001.44
2023-01-15T05:41:49.826Z,98998.91
2023-01-15T05:46:54.888Z,99007.50
2023-01-15T05:51:58.130Z,99008.41
2023-01-15T05:56:59.939Z,99000.59
2023-01-15T06:02:02.946Z,99008.31
2023-01-15T06:07:04.615Z,99002.25
2023-01-15T06:12:06.533Z,99023.03
2023-01-15T06:17:09.595Z,99024.72
2023-01-15T06:22:11.294Z,99026.50
2023-01-15T06:27:12.992Z,99035.16
2023-01-15T06:32:16.085Z,99049.84
2023-01-15T06:37:17.735Z,99055.03
2023-01-15T06:42:37.950Z,99051.56
2023-01-15T06:47:41.021Z,99057.63
2023-01-15T06:52:42.711Z,99042.91
2023-01-15T06:57:44.748Z,99041.16
2023-01-15T07:02:47.787Z,99041.16
2023-01-15T07:07:49.529Z,99039.41
2023-01-15T07:12:51.211Z,99039.38
2023-01-15T07:17:55.603Z,99033.28
2023-01-15T07:22:57.293Z,99035.88
2023-01-15T07:27:58.962Z,99026.28
2023-01-15T07:33:02.005Z,99035.81
2023-01-15T07:38:03.699Z,99035.78
2023-01-15T07:43:24.022Z,99045.31
2023-01-15T07:48:45.471Z,99047.94
2023-01-15T07:53:47.215Z,99047.94
2023-01-15T07:58:50.193Z,99045.34
2023-01-15T08:03:53.298Z,99037.53
2023-01-15T08:08:55.020Z,99036.66
2023-01-15T08:14:15.407Z,99040.16
2023-01-15T08:19:18.410Z,99023.69
2023-01-15T08:24:20.095Z,99041.88
2023-01-15T08:29:21.836Z,99037.91
2023-01-15T08:34:24.859Z,99043.50
2023-01-15T08:39:26.966Z,99034.56
2023-01-15T08:44:28.609Z,99050.50
2023-01-15T08:49:31.599Z,99047.34
2023-01-15T08:54:33.375Z,99050.97
2023-01-15T08:59:35.121Z,99044.91
2023-01-15T09:04:38.615Z,99043.19
2023-01-15T09:09:40.425Z,99039.72
2023-01-15T09:14:58.215Z,99024.09
2023-01-15T09:20:06.496Z,99047.44
2023-01-15T09:25:08.568Z,99050.84
2023-01-15T09:30:21.189Z,99054.19
2023-01-15T09:35:24.162Z,99071.44
2023-01-15T09:40:34.881Z,99087.81
2023-01-15T09:45:40.254Z,99084.19
2023-01-15T09:50:51.227Z,99090.22
2023-01-15T09:55:52.886Z,99065.84
2023-01-15T10:00:54.639Z,99071.81
2023-01-15T10:06:01.801Z,99080.34
2023-01-15T10:11:05.450Z,99075.72
2023-01-15T10:16:07.395Z,99083.44
2023-01-15T10:21:16.037Z,99065.41
2023-01-15T10:26:22.455Z,99057.22
2023-01-15T10:31:27.150Z,99063.94
2023-01-15T10:36:32.204Z,99052.91
2023-01-15T10:41:46.635Z,99078.22
2023-01-15T10:46:50.656Z,99075.63
2023-01-15T10:51:54.603Z,99087.78
2023-01-15T10:57:01.919Z,99072.53
2023-01-15T11:02:03.957Z,99079.69
2023-01-15T11:07:09.688Z,99068.66
2023-01-15T11:12:19.881Z,99073.97
2023-01-15T11:17:40.724Z,99088.84
2023-01-15T11:22:45.027Z,99089.75
2023-01-15T11:27:48.831Z,99083.66
2023-01-15T11:32:54.922Z,99067.09
2023-01-15T11:38:11.018Z,99076.56
2023-01-15T11:43:38.178Z,99076.50
2023-01-15T11:49:02.448Z,99076.41
2023-01-15T11:54:05.504Z,99081.25
2023-01-15T11:59:10.304Z,99084.41
2023-01-15T12:04:24.441Z,99076.72
2023-01-15T12:09:32.613Z,99071.47
2023-01-15T12:14:44.297Z,99056.50
2023-01-15T12:19:47.298Z,99063.91
2023-01-15T12:25:04.910Z,99059.03
2023-01-15T12:30:14.518Z,99057.94
2023-01-15T12:35:18.651Z,99058.09
2023-01-15T12:40:23.798Z,99053.22
2023-01-15T12:45:27.026Z,99038.53
2023-01-15T12:50:32.541Z,99036.13
2023-01-15T12:55:38.651Z,99034.63
2023-01-15T13:00:41.782Z,99041.41
2023-01-15T13:05:47.686Z,99031.47
2023-01-15T13:10:53.140Z,99055.34
2023-01-15T13:16:04.792Z,99066.69
2023-01-15T13:21:09.922Z,99048.13
2023-01-15T13:26:19.223Z,99042.31
2023-01-15T13:31:33.904Z,99063.22
2023-01-15T13:36:37.763Z,99056.38
2023-01-15T13:41:59.274Z,99046.09
2023-01-15T13:47:02.515Z,99049.59
2023-01-15T13:52:04.763Z,99051.47
2023-01-15T13:57:21.972Z,99056.72
2023-01-15T14:02:27.787Z,99058.50
2023-01-15T14:07:33.923Z,99063.72
2023-01-15T14:12:41.655Z,99060.25
2023-01-15T14:17:56.809Z,99060.25
2023-01-15T14:23:05.047Z,99052.44
2023-01-15T14:28:22.078Z,99058.50
2023-01-15T14:33:28.224Z,99060.09
2023-01-15T14:38:31.123Z,99068.84
2023-01-15T14:43:35.788Z,99069.78
2023-01-15T14:48:38.609Z,99072.41
2023-01-15T14:53:44.760Z,99069.88
2023-01-15T14:58:49.910Z,99087.19
2023-01-15T15:03:54.112Z,99067.31
2023-01-15T15:08:59.534Z,99069.97
2023-01-15T15:14:02.574Z,99059.47
2023-01-15T15:19:05.624Z,99065.53
2023-01-15T15:24:11.236Z,99088.94
2023-01-15T15:29:14.896Z,99061.97
2023-01-15T15:34:17.991Z,99063.78
2023-01-15T15:39:20.461Z,99053.50
2023-01-15T15:44:54.843Z,99063.84
2023-01-15T15:49:58.441Z,99078.53
2023-01-15T15:55:00.482Z,99078.66
2023-01-15T16:00:04.279Z,99085.50
2023-01-15T16:05:20.731Z,99087.97
2023-01-15T16:10:25.349Z,99092.38
2023-01-15T16:15:29.862Z,99095.84
2023-01-15T16:20:31.685Z,99094.16
2023-01-15T16:25:34.503Z,99092.53
2023-01-15T16:30:44.682Z,99098.56
2023-01-15T16:35:46.519Z,99094.22
2023-01-15T16:40:48.354Z,99102.00
2023-01-15T16:46:03.606Z,99101.16
2023-01-15T16:51:31.173Z,99121.03
2023-01-15T16:56:49.776Z,99119.22
2023-01-15T17:01:56.483Z,99130.53
2023-01-15T17:06:59.261Z,99127.94
2023-01-15T17:12:02.577Z,99128.75
2023-01-15T17:17:24.537Z,99148.75
2023-01-15T17:22:27.913Z,99138.34
2023-01-15T17:27:29.820Z,99137.47
2023-01-15T17:32:36.089Z,99146.97
2023-01-15T17:37:37.856Z,99160.91
2023-01-15T17:42:39.631Z,99148.75
2023-01-15T17:47:42.773Z,99168.69
2023-01-15T17:52:45.622Z,99177.38
2023-01-15T17:58:05.854Z,99171.31
2023-01-15T18:03:30.621Z,99170.41
2023-01-15T18:08:33.791Z,99177.38
2023-01-15T18:13:35.551Z,99156.59
2023-01-15T18:18:38.673Z,99180.81
2023-01-15T18:23:40.732Z,99191.25
2023-01-15T18:28:42.445Z,99190.44
2023-01-15T18:33:45.839Z,99185.25
2023-01-15T18:38:48.686Z,99183.56
2023-01-15T18:44:09.067Z,99193.91
2023-01-15T18:49:12.126Z,99180.06
2023-01-15T18:54:13.983Z,99189.56
2023-01-15T18:59:16.192Z,99181.78
2023-01-15T19:04:20.447Z,99192.22
2023-01-15T19:09:24.213Z,99186.16
2023-01-15T19:14:44.633Z,99200.84
2023-01-15T19:19:48.654Z,99181.88
2023-01-15T19:24:50.463Z,99198.25
2023-01-15T19:29:52.241Z,99199.09
2023-01-15T19:34:55.348Z,99216.41
2023-01-15T19:39:57.037Z,99203.38
2023-01-15T19:45:17.452Z,99210.25
2023-01-15T19:50:22.284Z,99208.56
2023-01-15T19:55:24.242Z,99207.75
2023-01-15T20:00:26.349Z,99209.47
2023-01-15T20:05:30.092Z,99215.50
2023-01-15T20:10:33.057Z,99219.88
2023-01-15T20:15:36.123Z,99213.84
2023-01-15T20:20:39.379Z,99221.69
2023-01-15T20:25:41.981Z,99219.06
2023-01-15T20:30:43.760Z,99233.75
2023-01-15T20:35:46.865Z,99226.81
2023-01-15T20:40:49.154Z,99227.75
2023-01-15T20:45:52.072Z,99225.22
2023-01-15T20:51:01.174Z,99235.59
2023-01-15T20:56:03.480Z,99247.75
2023-01-15T21:01:06.494Z,99229.66
2023-01-15T21:06:09.818Z,99235.72
2023-01-15T21:11:11.481Z,99228.00
2023-01-15T21:16:14.015Z,99226.25
2023-01-15T21:21:17.870Z,99223.72
2023-01-15T21:26:19.571Z,99231.44
2023-01-15T21:31:21.476Z,99224.47
2023-01-15T21:36:24.670Z,99218.41
2023-01-15T21:41:45.001Z,99232.22
2023-01-15T21:46:46.753Z,99223.59
2023-01-15T21:51:49.731Z,99236.56
2023-01-15T21:56:51.534Z,99238.34
2023-01-15T22:01:53.381Z,99241.81
2023-01-15T22:06:56.490Z,99240.97
2023-01-15T22:11:58.170Z,99246.19
2023-01-15T22:17:00.407Z,99248.78
2023-01-15T22:22:04.495Z,99238.38
2023-01-15T22:27:06.748Z,99233.19
2023-01-15T22:32:09.397Z,99241.88
2023-01-15T22:37:14.047Z,99231.50
2023-01-15T22:42:24.743Z,99224.56
2023-01-15T22:47:26.952Z,99221.13
2023-01-15T22:52:30.106Z,99231.53
2023-01-15T22:57:32.085Z,99224.66
2023-01-15T23:02:52.437Z,99230.69
2023-01-15T23:07:55.546Z,99230.75
2023-01-15T23:12:57.269Z,99232.47
2023-01-15T23:17:59.097Z,99228.19
2023-01-15T23:23:02.140Z,99223.00
2023-01-15T23:28:04.000Z,99221.25
2023-01-15T23:33:05.741Z,99206.56
2023-01-15T23:38:08.789Z,99203.97
2023-01-15T23:43:29.127Z,99189.28
2023-01-15T23:48:30.909Z,99180.66
2023-01-15T23:53:33.972Z,99180.59
2023-01-15T23:58:35.737Z,99178.00
